Time;durP1;ratioP1;P1;durP2;ratioP2;P2;SDS_P1;SDS_P2;PMS_P1;PMS_P2;Temp;Humidity;BMP_temperature;BMP_pressure;BME280_temperature;BME280_humidity;BME280_pressure;Samples;Min_cycle;Max_cycle;Signal;HPM_P1;HPM_P2
2022/05/11 00:00:40;;;;;;;13.90;11.18;;;16.10;99.90;;;;;;5032966;28;20032;-62
2022/05/11 00:03:06;;;;;;;11.93;10.73;;;16.10;99.90;;;;;;5032711;28;20028;-62
2022/05/11 00:05:32;;;;;;;11.95;10.68;;;16.20;99.90;;;;;;5030710;28;20045;-62
2022/05/11 00:07:58;;;;;;;12.80;11.23;;;16.20;99.90;;;;;;5035912;28;20112;-62
2022/05/11 00:10:24;;;;;;;15.57;10.80;;;16.20;99.90;;;;;;5033944;28;20480;-62
2022/05/11 00:12:50;;;;;;;14.52;11.30;;;16.20;99.90;;;;;;5034421;28;20028;-63
2022/05/11 00:15:20;;;;;;;13.13;10.25;;;16.20;99.90;;;;;;5033845;28;20029;-62
2022/05/11 00:17:46;;;;;;;13.85;11.20;;;16.20;99.90;;;;;;5029804;28;20014;-63
2022/05/11 00:20:13;;;;;;;13.88;11.10;;;16.10;99.90;;;;;;5035369;28;20140;-63
2022/05/11 00:22:39;;;;;;;13.23;11.43;;;16.20;99.90;;;;;;5034247;28;20017;-62
2022/05/11 00:25:07;;;;;;;14.82;11.00;;;16.30;99.90;;;;;;5032901;28;20512;-63
2022/05/11 00:27:33;;;;;;;13.40;11.68;;;16.20;99.90;;;;;;5033709;28;20043;-62
2022/05/11 00:29:59;;;;;;;16.25;11.73;;;16.10;99.90;;;;;;5031561;28;20524;-62
2022/05/11 00:32:25;;;;;;;15.65;11.00;;;16.10;99.90;;;;;;5031822;28;20498;-62
2022/05/11 00:34:54;;;;;;;14.43;11.98;;;16.10;99.90;;;;;;5035623;28;20030;-62
2022/05/11 00:37:21;;;;;;;15.40;12.07;;;16.10;99.90;;;;;;5032446;28;20034;-62
2022/05/11 00:39:47;;;;;;;12.38;11.05;;;16.10;99.90;;;;;;5033607;28;20080;-62
2022/05/11 00:42:13;;;;;;;14.35;11.10;;;16.00;99.90;;;;;;5033581;28;20029;-62
2022/05/11 00:44:38;;;;;;;16.63;11.13;;;16.00;99.90;;;;;;5029610;28;20105;-63
2022/05/11 00:47:09;;;;;;;14.98;12.15;;;16.00;99.90;;;;;;5035592;28;20100;-63
2022/05/11 00:49:39;;;;;;;15.40;11.88;;;16.00;99.90;;;;;;5033805;28;20036;-62
2022/05/11 00:52:08;;;;;;;14.63;10.98;;;16.00;99.90;;;;;;5032315;28;20036;-62
2022/05/11 00:54:40;;;;;;;15.95;11.70;;;16.00;99.90;;;;;;5033834;28;20059;-62
2022/05/11 00:57:11;;;;;;;13.63;12.07;;;16.00;99.90;;;;;;5032616;28;20733;-62
2022/05/11 00:59:41;;;;;;;13.45;11.45;;;16.00;99.90;;;;;;5029059;28;20026;-62
2022/05/11 01:02:08;;;;;;;15.57;12.10;;;15.90;99.90;;;;;;5035145;28;20071;-62
2022/05/11 01:04:38;;;;;;;13.68;12.23;;;16.00;99.90;;;;;;5033648;28;20033;-62
2022/05/11 01:07:04;;;;;;;15.23;11.93;;;15.90;99.90;;;;;;5033593;28;20021;-62
2022/05/11 01:09:30;;;;;;;13.50;11.65;;;15.90;99.90;;;;;;5034556;28;20033;-62
2022/05/11 01:12:00;;;;;;;13.77;10.77;;;15.90;99.90;;;;;;5034386;28;20032;-60
2022/05/11 01:14:31;;;;;;;15.27;11.20;;;15.90;99.90;;;;;;5035429;28;20083;-62
2022/05/11 01:16:58;;;;;;;13.02;11.52;;;15.80;99.90;;;;;;5037056;28;20379;-62
2022/05/11 01:19:33;;;;;;;17.60;12.35;;;16.00;99.90;;;;;;5036908;28;20033;-62
2022/05/11 01:22:06;;;;;;;15.82;11.88;;;15.90;99.90;;;;;;5037158;28;20394;-61
2022/05/11 01:24:37;;;;;;;14.07;11.40;;;15.90;99.90;;;;;;5036714;28;20036;-62
2022/05/11 01:27:25;;;;;;;14.70;11.88;;;15.80;99.90;;;;;;5035160;28;20064;-63
2022/05/11 01:29:51;;;;;;;13.88;11.85;;;15.80;99.90;;;;;;5019032;28;20028;-61
2022/05/11 01:32:18;;;;;;;16.08;12.15;;;15.80;99.90;;;;;;5036926;28;20033;-61
2022/05/11 01:34:44;;;;;;;15.88;13.35;;;15.70;99.90;;;;;;5037246;28;20018;-65
2022/05/11 01:37:09;;;;;;;17.00;12.55;;;15.70;99.90;;;;;;5036540;28;20056;-65
2022/05/11 01:39:35;;;;;;;13.98;12.52;;;15.70;99.90;;;;;;5037001;28;20036;-64
2022/05/11 01:42:01;;;;;;;14.13;12.63;;;15.60;99.90;;;;;;5034629;28;20406;-64
2022/05/11 01:44:26;;;;;;;15.02;12.82;;;15.70;99.90;;;;;;5034076;28;20037;-64
2022/05/11 01:46:54;;;;;;;16.60;12.75;;;15.70;99.90;;;;;;5036320;28;20021;-65
2022/05/11 01:49:22;;;;;;;14.00;12.55;;;15.50;99.90;;;;;;5036725;28;20083;-65
2022/05/11 01:51:48;;;;;;;15.23;12.57;;;15.60;99.90;;;;;;5036608;28;20036;-64
2022/05/11 01:54:14;;;;;;;17.08;12.55;;;15.60;99.90;;;;;;5034925;28;20033;-65
2022/05/11 01:56:41;;;;;;;13.82;11.52;;;15.70;99.90;;;;;;5031980;28;20390;-63
2022/05/11 01:59:06;;;;;;;13.70;12.40;;;15.60;99.90;;;;;;5038022;28;20021;-65
2022/05/11 02:01:34;;;;;;;13.45;12.05;;;15.60;99.90;;;;;;5036230;28;20383;-64
2022/05/11 02:04:00;;;;;;;14.75;12.50;;;15.60;99.90;;;;;;5035976;28;20107;-63
2022/05/11 02:09:13;;;;;;;16.27;12.93;;;15.50;99.90;;;;;;5034792;28;20044;-65
2022/05/11 02:11:40;;;;;;;13.85;12.35;;;15.50;99.90;;;;;;5031069;28;20091;-63
2022/05/11 02:14:05;;;;;;;13.80;12.40;;;15.70;99.90;;;;;;5035481;28;20040;-64
2022/05/11 02:16:32;;;;;;;14.13;12.70;;;15.60;99.90;;;;;;5035071;28;20037;-64
2022/05/11 02:18:58;;;;;;;13.60;12.20;;;15.60;99.90;;;;;;5035096;28;20064;-65
2022/05/11 02:21:24;;;;;;;13.35;11.68;;;15.60;99.90;;;;;;5034700;28;20540;-64
2022/05/11 02:23:50;;;;;;;13.55;11.65;;;15.50;99.90;;;;;;5031778;28;20045;-65
2022/05/11 02:26:19;;;;;;;13.65;12.23;;;15.50;99.90;;;;;;5034113;28;20034;-65
2022/05/11 02:28:47;;;;;;;12.77;11.48;;;15.50;99.90;;;;;;5033918;28;20041;-65
2022/05/11 02:31:13;;;;;;;13.45;11.20;;;15.50;99.90;;;;;;5035281;28;20509;-64
2022/05/11 02:33:38;;;;;;;15.40;12.65;;;15.60;99.90;;;;;;5034794;28;20026;-65
2022/05/11 02:36:04;;;;;;;13.73;12.32;;;15.40;99.90;;;;;;5033211;28;20082;-65
2022/05/11 02:38:35;;;;;;;13.50;11.23;;;15.40;99.90;;;;;;5032158;28;20049;-64
2022/05/11 02:41:01;;;;;;;13.20;11.60;;;15.50;99.90;;;;;;5035117;28;20518;-65
2022/05/11 02:43:27;;;;;;;13.35;11.85;;;15.50;99.90;;;;;;5034170;28;20096;-65
2022/05/11 02:45:53;;;;;;;15.55;11.73;;;15.40;99.90;;;;;;5035230;28;20068;-65
2022/05/11 02:48:22;;;;;;;15.98;13.23;;;15.50;99.90;;;;;;5035306;28;20497;-65
2022/05/11 02:50:52;;;;;;;14.35;12.98;;;15.50;99.90;;;;;;5031574;28;20091;-65
2022/05/11 02:53:18;;;;;;;17.38;13.57;;;15.40;99.90;;;;;;5035500;28;20376;-64
2022/05/11 02:55:47;;;;;;;14.82;12.50;;;15.30;99.90;;;;;;5036199;28;20032;-65
2022/05/11 02:58:16;;;;;;;14.20;12.68;;;15.30;99.90;;;;;;5034839;28;20033;-64
2022/05/11 03:00:44;;;;;;;14.88;12.60;;;15.30;99.90;;;;;;5035118;28;20132;-65
2022/05/11 03:03:12;;;;;;;14.15;12.68;;;15.30;99.90;;;;;;5034535;28;20397;-64
2022/05/11 03:05:39;;;;;;;15.57;13.57;;;15.30;99.90;;;;;;5031388;28;20045;-65
2022/05/11 03:08:06;;;;;;;16.17;13.40;;;15.20;99.90;;;;;;5036919;28;20021;-64
2022/05/11 03:10:32;;;;;;;15.90;14.10;;;15.10;99.90;;;;;;5034845;28;20030;-64
2022/05/11 03:12:58;;;;;;;14.63;12.90;;;15.10;99.90;;;;;;5033340;28;20113;-64
2022/05/11 03:15:24;;;;;;;14.88;12.48;;;15.20;99.90;;;;;;5035161;28;20550;-65
2022/05/11 03:17:50;;;;;;;15.88;13.55;;;15.20;99.90;;;;;;5031408;28;20032;-65
2022/05/11 03:20:18;;;;;;;14.57;13.02;;;15.10;99.90;;;;;;5035210;28;20036;-65
2022/05/11 03:22:44;;;;;;;14.68;13.25;;;15.20;99.90;;;;;;5035347;28;20113;-65
2022/05/11 03:25:11;;;;;;;15.70;12.88;;;15.20;99.90;;;;;;5034509;28;20048;-65
2022/05/11 03:27:37;;;;;;;16.23;14.02;;;15.20;99.90;;;;;;5034371;28;20557;-65
2022/05/11 03:30:04;;;;;;;14.18;12.73;;;15.10;99.90;;;;;;5033371;28;20029;-65
2022/05/11 03:35:15;;;;;;;15.02;13.52;;;15.10;99.90;;;;;;5044517;28;20444;-65
2022/05/11 03:37:40;;;;;;;15.48;13.50;;;15.20;99.90;;;;;;5032143;28;20049;-65
2022/05/11 03:40:08;;;;;;;15.98;14.07;;;15.10;99.90;;;;;;5034210;28;20485;-65
2022/05/11 03:42:36;;;;;;;14.55;13.15;;;15.10;99.90;;;;;;5034459;28;20444;-65
2022/05/11 03:45:06;;;;;;;16.92;13.05;;;15.00;99.90;;;;;;5032650;28;20091;-65
2022/05/11 03:47:32;;;;;;;15.73;13.30;;;15.00;99.90;;;;;;5031602;28;24721;-65
2022/05/11 03:49:58;;;;;;;14.27;12.40;;;15.00;99.90;;;;;;5036438;28;20029;-65
2022/05/11 03:52:23;;;;;;;15.63;13.60;;;15.10;99.90;;;;;;5033033;28;20427;-65
2022/05/11 03:54:49;;;;;;;15.70;13.15;;;15.10;99.90;;;;;;5033875;28;20025;-65
2022/05/11 03:57:15;;;;;;;16.42;13.13;;;15.10;99.90;;;;;;5034390;28;20390;-65
2022/05/11 03:59:40;;;;;;;18.02;14.70;;;15.10;99.90;;;;;;5014441;28;20037;-65
2022/05/11 04:02:07;;;;;;;15.25;13.65;;;15.10;99.90;;;;;;5036414;28;20590;-64
2022/05/11 04:04:33;;;;;;;16.02;13.80;;;15.10;99.90;;;;;;5034537;28;20136;-65
2022/05/11 04:06:58;;;;;;;16.33;13.85;;;14.90;99.90;;;;;;5034167;28;20104;-65
2022/05/11 04:09:24;;;;;;;15.90;14.40;;;14.90;99.90;;;;;;5033717;28;20029;-65
2022/05/11 04:11:50;;;;;;;15.98;14.30;;;14.80;99.90;;;;;;5031007;28;20026;-64
2022/05/11 04:14:15;;;;;;;16.58;14.88;;;14.70;99.90;;;;;;5034783;28;20040;-65
2022/05/11 04:16:41;;;;;;;15.95;14.50;;;14.60;99.90;;;;;;5034894;28;20014;-65
2022/05/11 04:19:07;;;;;;;16.63;14.93;;;14.70;99.90;;;;;;5034065;28;20497;-64
2022/05/11 04:21:32;;;;;;;15.85;14.07;;;14.70;99.90;;;;;;5034297;28;20096;-64
2022/05/11 04:23:58;;;;;;;18.08;14.50;;;14.70;99.90;;;;;;5031786;28;20465;-64
2022/05/11 04:26:24;;;;;;;16.40;14.90;;;14.70;99.90;;;;;;5032607;28;20027;-63
2022/05/11 04:28:50;;;;;;;17.00;15.20;;;14.90;99.90;;;;;;5035563;28;20360;-64
2022/05/11 04:31:15;;;;;;;16.08;14.57;;;14.80;99.90;;;;;;5032421;28;20021;-65
2022/05/11 04:33:41;;;;;;;18.25;15.45;;;14.70;99.90;;;;;;5034010;28;20026;-65
2022/05/11 04:36:07;;;;;;;17.80;15.07;;;14.70;99.90;;;;;;5033216;28;20039;-64
2022/05/11 04:38:33;;;;;;;16.90;15.10;;;14.60;99.90;;;;;;5029912;28;20049;-64
2022/05/11 04:41:00;;;;;;;16.35;14.73;;;14.70;99.90;;;;;;5036065;28;20024;-64
2022/05/11 04:43:25;;;;;;;16.80;15.07;;;14.80;99.90;;;;;;5034789;28;20029;-65
2022/05/11 04:45:51;;;;;;;16.73;15.02;;;14.80;99.90;;;;;;5037486;28;20392;-65
2022/05/11 04:48:18;;;;;;;16.45;14.68;;;14.70;99.90;;;;;;5037627;28;20116;-64
2022/05/11 04:50:45;;;;;;;18.08;16.10;;;14.70;99.90;;;;;;5033706;28;20029;-65
2022/05/11 04:53:13;;;;;;;17.48;15.77;;;14.70;99.90;;;;;;5038861;28;20025;-64
2022/05/11 04:55:40;;;;;;;19.30;16.13;;;14.60;99.90;;;;;;5038000;28;20482;-65
2022/05/11 04:58:05;;;;;;;16.63;14.90;;;14.60;99.90;;;;;;5037468;28;20021;-64
2022/05/11 05:00:33;;;;;;;16.98;15.23;;;14.60;99.90;;;;;;5037520;28;20029;-64
2022/05/11 05:03:00;;;;;;;18.85;16.95;;;14.60;99.90;;;;;;5035245;28;20025;-65
2022/05/11 05:05:26;;;;;;;18.70;16.88;;;14.80;99.90;;;;;;5033517;28;20037;-64
2022/05/11 05:07:52;;;;;;;22.13;19.73;;;14.80;99.90;;;;;;5039248;28;20036;-64
2022/05/11 05:10:21;;;;;;;20.95;18.95;;;14.70;99.90;;;;;;5035814;28;20513;-64
2022/05/11 05:12:47;;;;;;;22.35;17.45;;;14.50;99.90;;;;;;5037063;28;20033;-64
2022/05/11 05:15:14;;;;;;;20.33;16.95;;;14.60;99.90;;;;;;5036916;28;20031;-64
2022/05/11 05:17:40;;;;;;;22.13;18.30;;;14.80;99.90;;;;;;5017093;28;20018;-64
2022/05/11 05:20:07;;;;;;;23.13;16.95;;;14.80;99.90;;;;;;5037931;28;20104;-64
2022/05/11 05:22:34;;;;;;;19.00;17.08;;;14.90;99.90;;;;;;5036711;28;20057;-64
2022/05/11 05:25:00;;;;;;;18.38;16.55;;;14.90;99.90;;;;;;5037078;28;20036;-64
2022/05/11 05:27:26;;;;;;;18.75;16.83;;;14.70;99.90;;;;;;5035427;28;20033;-64
2022/05/11 05:32:40;;;;;;;19.95;17.42;;;14.80;99.90;;;;;;5032548;28;20394;-65
2022/05/11 05:35:09;;;;;;;20.13;18.17;;;14.70;99.90;;;;;;5038391;28;20025;-65
2022/05/11 05:37:35;;;;;;;19.80;17.85;;;14.70;99.90;;;;;;5036169;28;20049;-63
2022/05/11 05:40:01;;;;;;;21.15;17.95;;;14.70;99.90;;;;;;5036740;28;20075;-65
2022/05/11 05:42:28;;;;;;;20.15;17.95;;;14.70;99.90;;;;;;5036350;28;20048;-66
2022/05/11 05:44:54;;;;;;;21.73;19.42;;;14.70;99.90;;;;;;5031635;28;20029;-65
2022/05/11 05:47:21;;;;;;;20.88;18.88;;;14.80;99.90;;;;;;5034760;28;20029;-65
2022/05/11 05:49:47;;;;;;;19.70;17.65;;;14.70;99.90;;;;;;5033549;28;20045;-64
2022/05/11 05:52:19;;;;;;;18.40;16.60;;;14.90;99.90;;;;;;5031629;28;20035;-65
2022/05/11 05:54:45;;;;;;;18.73;16.92;;;14.90;99.90;;;;;;5031667;28;20494;-63
2022/05/11 05:57:12;;;;;;;17.52;15.77;;;15.10;99.90;;;;;;5031529;28;20105;-64
2022/05/11 05:59:38;;;;;;;19.35;16.05;;;15.10;99.90;;;;;;5030983;28;20029;-64
2022/05/11 06:02:08;;;;;;;17.23;15.52;;;15.10;99.90;;;;;;5038022;28;20025;-65
2022/05/11 06:04:34;;;;;;;20.85;16.65;;;15.10;99.90;;;;;;5036037;28;20045;-66
2022/05/11 06:07:00;;;;;;;20.33;16.98;;;15.20;99.90;;;;;;5035807;28;20768;-65
2022/05/11 06:09:25;;;;;;;18.20;16.40;;;15.10;99.90;;;;;;5036347;28;20056;-62
2022/05/11 06:11:51;;;;;;;18.45;16.63;;;15.20;99.90;;;;;;5031677;28;20046;-62
2022/05/11 06:14:17;;;;;;;18.90;17.08;;;15.30;99.90;;;;;;5035930;28;20037;-61
2022/05/11 06:16:42;;;;;;;22.27;17.60;;;15.30;99.90;;;;;;5035949;28;20042;-63
2022/05/11 06:19:08;;;;;;;23.10;18.02;;;15.40;99.90;;;;;;5035270;28;20022;-61
2022/05/11 06:21:34;;;;;;;19.65;17.67;;;15.40;99.90;;;;;;5035421;28;20024;-63
2022/05/11 06:24:00;;;;;;;18.55;16.75;;;15.40;99.90;;;;;;5033810;28;20052;-61
2022/05/11 06:26:25;;;;;;;20.67;18.67;;;15.50;99.90;;;;;;5034467;28;20425;-60
2022/05/11 06:28:51;;;;;;;19.15;17.02;;;15.30;99.90;;;;;;5035632;28;20060;-65
2022/05/11 06:31:17;;;;;;;20.08;17.23;;;15.50;99.90;;;;;;5035474;28;20474;-65
2022/05/11 06:33:49;;;;;;;20.45;18.35;;;15.50;99.90;;;;;;5034270;28;20553;-65
2022/05/11 06:36:15;;;;;;;19.80;17.08;;;15.50;99.90;;;;;;5035486;28;20021;-65
2022/05/11 06:38:41;;;;;;;22.73;18.50;;;15.60;99.90;;;;;;5014666;28;20045;-64
2022/05/11 06:41:19;;;;;;;22.33;18.25;;;15.60;99.90;;;;;;5069860;28;20116;-65
2022/05/11 06:43:45;;;;;;;20.13;18.02;;;15.80;99.90;;;;;;5036007;28;20026;-65
2022/05/11 06:46:12;;;;;;;20.88;18.67;;;15.70;99.90;;;;;;5035010;28;20041;-63
2022/05/11 06:48:38;;;;;;;21.17;18.63;;;15.80;99.90;;;;;;5034752;28;20481;-65
2022/05/11 06:51:04;;;;;;;22.17;19.05;;;15.50;99.90;;;;;;5032150;28;20029;-65
2022/05/11 06:59:20;;;;;;;20.40;18.02;;;15.40;99.90;;;;;;5032346;28;20030;-65
2022/05/11 06:59:21;;;;;;;19.10;17.13;;;15.90;99.90;;;;;;5036492;28;20440;-65
2022/05/11 07:02:03;;;;;;;19.35;17.35;;;15.90;99.90;;;;;;5036262;28;20033;-65
2022/05/11 07:04:29;;;;;;;23.63;16.65;;;16.10;99.90;;;;;;5034153;28;20503;-65
2022/05/11 07:06:56;;;;;;;18.67;16.60;;;16.40;99.90;;;;;;5032717;28;20112;-64
2022/05/11 07:09:24;;;;;;;18.23;16.42;;;16.50;99.90;;;;;;5034845;28;20032;-66
2022/05/11 07:14:35;;;;;;;18.55;16.63;;;16.30;99.90;;;;;;5031973;28;20039;-66
2022/05/11 07:17:01;;;;;;;19.05;16.63;;;16.60;99.90;;;;;;5036498;28;20022;-66
2022/05/11 07:19:28;;;;;;;18.45;16.63;;;16.60;99.90;;;;;;5034334;28;20799;-65
2022/05/11 07:21:54;;;;;;;18.00;16.25;;;16.50;99.90;;;;;;5034152;28;20517;-64
2022/05/11 07:24:20;;;;;;;17.58;15.88;;;16.70;99.90;;;;;;5033679;28;20029;-65
2022/05/11 07:26:46;;;;;;;18.25;16.33;;;16.70;99.90;;;;;;5030565;28;20033;-65
2022/05/11 07:29:12;;;;;;;17.48;15.43;;;16.70;99.90;;;;;;5036367;28;20034;-66
2022/05/11 07:31:38;;;;;;;18.20;15.85;;;17.00;99.90;;;;;;5034889;28;20036;-67
2022/05/11 07:34:05;;;;;;;16.38;14.70;;;17.10;99.90;;;;;;5034567;28;20022;-65
2022/05/11 07:36:31;;;;;;;16.63;14.32;;;17.10;99.90;;;;;;5034555;28;20033;-65
2022/05/11 07:38:57;;;;;;;16.77;14.63;;;17.20;99.90;;;;;;5031864;28;20494;-65
2022/05/11 07:41:23;;;;;;;16.02;14.32;;;17.20;99.90;;;;;;5033124;28;20053;-66
2022/05/11 07:43:49;;;;;;;15.43;13.23;;;17.20;99.90;;;;;;5036106;28;20084;-66
2022/05/11 07:46:15;;;;;;;16.95;15.23;;;17.30;99.90;;;;;;5032911;28;20049;-66
2022/05/11 07:48:41;;;;;;;18.70;13.65;;;17.30;99.90;;;;;;5033932;28;20414;-66
2022/05/11 07:51:06;;;;;;;15.07;12.88;;;17.60;99.90;;;;;;5033632;28;20094;-66
2022/05/11 07:53:32;;;;;;;15.38;13.45;;;17.90;99.90;;;;;;5030893;28;20044;-66
2022/05/11 08:01:27;;;;;;;14.82;13.30;;;17.90;99.90;;;;;;5034094;28;20122;-66
2022/05/11 08:03:53;;;;;;;15.20;13.77;;;18.30;99.90;;;;;;5034367;28;20052;-66
2022/05/11 08:06:21;;;;;;;16.30;14.68;;;18.70;99.90;;;;;;5034247;28;20032;-66
2022/05/11 08:08:47;;;;;;;14.52;13.18;;;18.90;99.90;;;;;;5029342;28;20021;-66
2022/05/11 08:11:13;;;;;;;14.57;12.90;;;20.50;99.90;;;;;;5034213;28;20037;-66
2022/05/11 08:13:39;;;;;;;15.27;13.77;;;20.70;99.90;;;;;;5034519;28;20017;-67
2022/05/11 08:16:05;;;;;;;13.70;12.40;;;20.90;99.90;;;;;;5034171;28;20036;-66
2022/05/11 08:18:31;;;;;;;14.88;13.55;;;22.40;99.90;;;;;;5035188;28;20414;-66
2022/05/11 08:20:57;;;;;;;13.43;11.43;;;24.30;99.90;;;;;;5035812;28;20037;-66
2022/05/11 08:23:22;;;;;;;13.63;11.10;;;26.40;99.90;;;;;;5037576;28;20413;-66
2022/05/11 08:25:51;;;;;;;12.60;11.48;;;27.20;99.90;;;;;;5037795;28;20043;-66
2022/05/11 08:28:20;;;;;;;12.10;10.88;;;27.50;99.90;;;;;;5037843;28;20024;-67
2022/05/11 08:33:33;;;;;;;11.82;10.60;;;26.50;99.90;;;;;;5038199;28;20087;-66
2022/05/11 08:36:06;;;;;;;13.07;10.50;;;27.70;98.50;;;;;;5035852;28;20036;-67
2022/05/11 08:38:39;;;;;;;11.93;10.03;;;29.30;96.10;;;;;;5034692;28;20058;-64
2022/05/11 08:41:26;;;;;;;11.90;10.52;;;28.20;95.90;;;;;;5040020;28;20431;-64
2022/05/11 08:43:56;;;;;;;13.60;10.93;;;28.80;95.50;;;;;;5039672;28;20021;-64
2022/05/11 08:46:52;;;;;;;18.33;11.55;;;29.10;96.20;;;;;;5037401;28;20433;-64
2022/05/11 08:49:26;;;;;;;15.20;11.35;;;29.10;94.50;;;;;;5036342;28;20021;-64
2022/05/11 08:52:02;;;;;;;14.20;11.70;;;28.60;96.10;;;;;;5037889;28;20036;-64
2022/05/11 08:54:36;;;;;;;15.77;11.05;;;28.80;96.30;;;;;;5037638;28;20111;-64
2022/05/11 08:57:05;;;;;;;12.90;10.70;;;30.50;93.10;;;;;;5035572;28;20410;-64
2022/05/11 08:59:32;;;;;;;11.75;9.93;;;30.80;92.10;;;;;;5034022;28;20517;-64
2022/05/11 09:02:24;;;;;;;11.43;9.10;;;31.00;91.50;;;;;;5039503;28;20030;-64
2022/05/11 09:04:58;;;;;;;12.63;9.70;;;30.40;93.00;;;;;;5037728;28;20049;-65
2022/05/11 09:07:25;;;;;;;13.40;8.90;;;30.40;92.10;;;;;;5037197;28;20041;-64
2022/05/11 09:09:53;;;;;;;11.35;9.50;;;29.70;92.00;;;;;;5037188;28;20014;-64
2022/05/11 09:12:19;;;;;;;11.18;9.40;;;29.00;92.80;;;;;;5037123;28;20025;-63
2022/05/11 09:14:54;;;;;;;10.30;8.80;;;29.20;92.80;;;;;;5032644;28;20033;-63
2022/05/11 09:17:31;;;;;;;11.60;8.70;;;29.90;92.60;;;;;;5036549;28;20025;-63
2022/05/11 09:20:08;;;;;;;11.50;8.27;;;29.30;92.90;;;;;;5037518;28;20099;-63
2022/05/11 09:22:37;;;;;;;11.65;8.43;;;29.50;92.70;;;;;;5036900;28;20033;-63
2022/05/11 09:25:17;;;;;;;9.10;8.20;;;29.10;92.80;;;;;;5036792;28;20120;-63
2022/05/11 09:27:42;;;;;;;10.77;8.85;;;27.90;94.50;;;;;;5036588;28;20029;-64
2022/05/11 09:30:30;;;;;;;9.10;8.20;;;29.10;94.00;;;;;;5034414;28;20032;-64
2022/05/11 09:33:22;;;;;;;9.73;8.20;;;30.30;92.40;;;;;;5020374;28;20021;-63
2022/05/11 09:35:48;;;;;;;16.40;8.80;;;30.70;92.10;;;;;;5017981;28;20842;-64
2022/05/11 09:38:16;;;;;;;10.45;8.07;;;30.50;91.80;;;;;;5037826;28;20129;-63
2022/05/11 09:41:04;;;;;;;9.82;7.53;;;29.90;92.50;;;;;;5035776;28;20494;-63
2022/05/11 09:43:38;;;;;;;9.52;7.75;;;30.40;92.20;;;;;;5034824;28;20041;-64
2022/05/11 09:46:19;;;;;;;;;;;29.50;92.00;;;;;;5035841;28;20068;-63
2022/05/11 09:49:24;;;;;;;10.05;7.50;;;29.30;93.50;;;;;;5036519;28;20007;-65
2022/05/11 09:51:50;;;;;;;10.35;7.15;;;29.40;91.90;;;;;;5035332;28;20029;-64
2022/05/11 09:54:19;;;;;;;10.70;7.70;;;29.90;92.90;;;;;;5036899;28;20025;-63
2022/05/11 09:57:03;;;;;;;9.07;7.05;;;30.10;91.40;;;;;;5032090;28;20025;-65
2022/05/11 09:59:47;;;;;;;10.00;7.30;;;29.90;91.30;;;;;;5033731;28;20108;-64
2022/05/11 10:02:39;;;;;;;10.68;6.68;;;28.30;93.80;;;;;;5045936;28;20033;-64
2022/05/11 10:05:25;;;;;;;10.32;6.57;;;28.80;93.80;;;;;;5037183;28;20036;-64
2022/05/11 10:07:56;;;;;;;9.63;7.00;;;30.10;92.40;;;;;;5037126;28;20390;-64
2022/05/11 10:10:38;;;;;;;9.55;6.90;;;30.20;92.20;;;;;;5035721;28;20026;-64
2022/05/11 10:13:23;;;;;;;12.65;7.28;;;30.10;91.20;;;;;;5035686;28;20490;-65
2022/05/11 10:21:56;;;;;;;11.15;6.75;;;29.80;92.00;;;;;;5034808;28;20023;-59
2022/05/11 10:24:31;;;;;;;12.02;6.03;;;30.30;91.90;;;;;;5035512;28;20524;-60
2022/05/11 10:27:03;;;;;;;12.05;6.63;;;30.80;91.10;;;;;;5033079;28;20022;-60
2022/05/11 10:29:50;;;;;;;15.50;6.47;;;28.40;93.20;;;;;;5033337;28;20029;-60
2022/05/11 10:32:41;;;;;;;11.68;6.97;;;29.60;93.20;;;;;;5045836;28;20033;-60
2022/05/11 10:35:16;;;;;;;17.90;7.03;;;30.20;91.60;;;;;;5037398;28;20033;-60
2022/05/11 10:37:48;;;;;;;11.10;6.47;;;30.60;91.90;;;;;;5034609;28;20054;-60
2022/05/11 10:40:31;;;;;;;12.15;6.60;;;30.80;90.70;;;;;;5035446;28;20095;-60
2022/05/11 10:43:33;;;;;;;8.35;6.50;;;30.70;90.40;;;;;;5034964;28;20032;-60
2022/05/11 10:46:09;;;;;;;9.50;6.57;;;31.20;90.20;;;;;;5033914;28;20522;-60
2022/05/11 10:48:55;;;;;;;13.18;6.22;;;31.10;89.90;;;;;;5035412;28;20028;-59
2022/05/11 10:51:36;;;;;;;10.45;7.20;;;30.90;90.20;;;;;;5035239;28;20033;-60
2022/05/11 10:54:13;;;;;;;15.77;7.30;;;30.60;91.10;;;;;;5033376;28;20048;-59
2022/05/11 10:56:45;;;;;;;12.52;7.03;;;31.10;90.70;;;;;;5031153;28;20033;-60
2022/05/11 10:59:55;;;;;;;9.40;6.85;;;30.90;90.20;;;;;;5044167;28;20021;-60
2022/05/11 11:02:38;;;;;;;8.50;6.57;;;30.90;90.40;;;;;;5007001;28;20434;-60
2022/05/11 11:05:25;;;;;;;12.68;6.68;;;31.20;90.20;;;;;;5010297;28;20041;-60
2022/05/11 11:08:15;;;;;;;10.20;6.82;;;31.50;88.60;;;;;;5008632;28;20130;-59
2022/05/11 11:10:59;;;;;;;7.15;5.75;;;30.80;89.80;;;;;;5007991;28;20414;-61
2022/05/11 11:13:25;;;;;;;6.00;5.40;;;31.30;88.00;;;;;;5008069;28;20038;-60
2022/05/11 11:15:51;;;;;;;9.18;5.90;;;31.50;87.10;;;;;;5008434;28;20052;-60
2022/05/11 11:18:31;;;;;;;8.57;6.30;;;30.90;89.30;;;;;;5008411;28;20060;-60
2022/05/11 11:21:01;;;;;;;8.75;6.50;;;30.50;90.70;;;;;;5008804;28;20048;-60
2022/05/11 11:23:31;;;;;;;7.10;6.10;;;30.50;90.80;;;;;;5008583;28;20025;-60
2022/05/11 11:26:21;;;;;;;10.23;6.45;;;31.20;91.10;;;;;;5009608;28;20053;-60
2022/05/11 11:28:50;;;;;;;8.85;6.78;;;30.50;91.50;;;;;;4970590;28;20043;-60
2022/05/11 11:31:28;;;;;;;9.45;7.10;;;30.80;90.70;;;;;;4970618;28;20104;-60
2022/05/11 11:33:54;;;;;;;15.70;7.80;;;31.20;90.20;;;;;;4970433;28;20067;-60
2022/05/11 11:36:26;;;;;;;10.10;7.30;;;31.00;91.40;;;;;;4970417;28;20065;-61
2022/05/11 11:38:53;;;;;;;11.63;7.45;;;30.50;91.40;;;;;;4970038;28;20548;-60
2022/05/11 11:41:22;;;;;;;10.07;6.95;;;30.40;91.00;;;;;;4970899;28;20027;-60
2022/05/11 11:44:30;;;;;;;11.45;7.43;;;30.40;91.00;;;;;;4970614;28;20035;-60
2022/05/11 11:46:57;;;;;;;10.00;6.72;;;29.60;92.30;;;;;;4969175;28;20058;-60
2022/05/11 11:49:27;;;;;;;8.20;6.30;;;29.00;92.50;;;;;;4970267;28;20031;-61
2022/05/11 11:51:57;;;;;;;10.40;6.72;;;29.00;93.50;;;;;;4970172;28;20575;-60
2022/05/11 11:54:37;;;;;;;13.38;6.43;;;29.10;93.40;;;;;;4969910;28;20065;-61
2022/05/11 11:57:09;;;;;;;9.68;6.50;;;29.70;93.20;;;;;;4970387;28;20563;-60
2022/05/11 11:59:49;;;;;;;12.60;6.93;;;30.10;92.60;;;;;;4970453;28;20050;-60
2022/05/11 12:02:39;;;;;;;10.13;6.60;;;28.40;93.60;;;;;;4967343;28;20037;-61
2022/05/11 12:05:39;;;;;;;9.02;6.47;;;28.20;93.60;;;;;;4983508;28;20440;-60
2022/05/11 12:16:52;;;;;;;11.20;6.28;;;26.10;96.20;;;;;;5034139;28;20409;-60
2022/05/11 12:19:18;;;;;;;12.50;6.40;;;27.10;96.20;;;;;;5032644;28;20025;-60
2022/05/11 12:22:12;;;;;;;8.02;6.13;;;27.10;95.40;;;;;;5033769;28;20064;-60
2022/05/11 12:24:44;;;;;;;9.32;6.18;;;27.00;95.00;;;;;;5033997;28;20499;-61
2022/05/11 12:27:21;;;;;;;13.17;6.00;;;27.20;95.90;;;;;;5033456;28;20044;-60
2022/05/11 12:29:58;;;;;;;11.98;6.18;;;27.00;96.40;;;;;;5013978;28;20017;-61
2022/05/11 12:32:31;;;;;;;9.57;5.82;;;27.80;95.70;;;;;;5033040;28;20040;-60
2022/05/11 12:35:05;;;;;;;;;;;28.30;94.80;;;;;;5034531;28;20414;-60
2022/05/11 12:37:32;;;;;;;;;;;28.10;95.50;;;;;;5033787;28;20376;-61
2022/05/11 12:40:12;;;;;;;11.25;6.03;;;27.50;95.90;;;;;;5034316;28;19909;-60
2022/05/11 12:42:46;;;;;;;10.52;6.10;;;27.90;95.00;;;;;;5033800;28;20108;-60
2022/05/11 12:45:17;;;;;;;8.85;5.45;;;28.10;95.50;;;;;;5033202;28;20037;-62
2022/05/11 12:47:54;;;;;;;8.10;5.10;;;28.20;95.40;;;;;;5013847;28;20022;-61
2022/05/11 12:50:46;;;;;;;7.65;4.95;;;28.40;93.40;;;;;;5043821;28;20025;-60
2022/05/11 12:53:15;;;;;;;10.38;4.90;;;28.50;93.80;;;;;;5043044;28;20025;-61
2022/05/11 12:55:43;;;;;;;6.38;4.70;;;28.30;93.70;;;;;;5034203;28;20036;-63
2022/05/11 12:58:21;;;;;;;10.55;5.13;;;28.00;93.20;;;;;;5032634;28;20406;-62
2022/05/11 13:00:55;;;;;;;8.18;4.70;;;27.80;94.40;;;;;;5033894;28;20439;-63
2022/05/11 13:03:36;;;;;;;7.38;4.97;;;28.30;92.90;;;;;;5032232;28;20021;-60
2022/05/11 13:06:06;;;;;;;8.10;4.43;;;28.50;93.30;;;;;;5034431;28;20417;-60
2022/05/11 13:08:44;;;;;;;8.77;4.85;;;28.50;92.90;;;;;;5034385;28;20025;-60
2022/05/11 13:11:15;;;;;;;9.07;4.60;;;28.60;93.70;;;;;;5039291;28;20022;-60
2022/05/11 13:13:43;;;;;;;8.52;4.95;;;28.50;92.70;;;;;;5037970;28;20037;-60
2022/05/11 13:16:17;;;;;;;8.68;4.75;;;28.50;92.40;;;;;;5037014;28;20028;-62
2022/05/11 13:18:43;;;;;;;8.95;4.63;;;28.00;93.10;;;;;;5037070;28;20030;-62
2022/05/11 13:21:10;;;;;;;5.13;3.92;;;27.60;93.70;;;;;;5035688;28;20095;-63
2022/05/11 13:23:40;;;;;;;6.93;4.60;;;27.90;93.00;;;;;;5033565;28;20045;-62
2022/05/11 13:26:11;;;;;;;6.90;4.30;;;28.00;93.10;;;;;;5038835;28;20034;-63